Martindale, TX (78655)

6:47 PM CDT on September 01, 2014 (GMT -0500)
Goodger Farm | Change Station
CLOSE
Current Station
Personal Weather Station
Location: Martindale, TX
Elevation: 531 ft
Nearby Weather Stations

Elev 531 ft 29.82 °N, 97.82 °W | Updated 9 seconds ago

Scattered Clouds
Scattered Clouds
95.9 °F
Feels Like 105 °F
N
8.1
Wind Variable Wind from ESE
Gusts 12.3 mph

Today
High -- | Low -- °F
--% Chance of Precip.
Yesterday
High -- | Low -- °F
Precip. -- in
7:08 AM 7:53 PM
Waxing Crescent, 45% visible
Pressure 29.86 in
Visibility 10.0 miles
Clouds Scattered Clouds 8500 ft
Heat Index 105 °F
Dew Point 72 °F
Humidity 47%
Rainfall 0.00 in
Snow Depth Not available.
UV 2 out of 12
Pollen 8.50 out of 12
Ozone Good
PM2.5 Good
Flu Activity Not available.
METAR KHYI 012250Z 12014G20KT 10SM SCT085 34/21 A2986

More Conditions Fewer Conditions

Pressure 29.86 in
Visibility 10.0 miles
Clouds Scattered Clouds 8500 ft
Heat Index 105 °F
Dew Point 72 °F
Humidity 47%
Rainfall 0.00 in
Snow Depth Not available.
UV 2 out of 12
Pollen 8.50 out of 12
Ozone Good
PM2.5 Good
Flu Activity Not available.
METAR KHYI 012250Z 12014G20KT 10SM SCT085 34/21 A2986

More Conditions Fewer Conditions

Nowcast | as of 4:53 PM CDT on September 1, 2014

Through 7 PM...isolated showers will move north at 20 mph. Spotty rainfall amounts up to one quarter inch are expected.

×

10-Day Weather Forecast

Almanac

Astronomy

Sep. 01, 2014 Rise Set
Actual Time 7:08 AM CDT 7:53 PM CDT
Civil Twilight 6:44 AM CDT 8:17 PM CDT
Nautical Twilight 6:15 AM CDT 8:46 PM CDT
Astronomical Twilight 5:46 AM CDT 9:15 PM CDT
Moon 1:26 PM CDT No Moon Set
Length of Visible Light 13h 33m
Length of Day
12h 45m
Tomorrow will be 1m 43s shorter.
Waxing Crescent, 45% of the Moon is Illuminated
Today
Waxing Crescent
Sep 2
First Quarter
Sep 8
Full
Sep 15
Last Quarter
Sep 24
New

Today's Extremes

State Highs State Lows

Community

WunderPhotos

Upload Photos

1,749,440 photos uploaded!

Nearby

Air Quality

  Air Quality AQ Index Pollutant
Yesterday Good
OZONE
Yesterday Good
PM2.5
Current Good
OZONE
Current Good
PM2.5
Monday Good
OZONE
Monday Good
PM10
Tuesday Good
OZONE
Tuesday Good
PM10
Wednesday Good
OZONE
Wednesday Good
PM10
Thursday Good
OZONE
Thursday Good
PM10

Snow Depth

Station Depth Elevation
No new snow has been reported.

Earthquake Activity

City Distance Mag. Time & Date
No recent earthquake activity has been reported nearby.
Minimum magnitude displayed is 2.5.

Coastal Water Temperatures

Place Temperature
No Stations Reporting

Nearby Weather Stations